sensor_id;sensor_type;location;lat;lon;timestamp;temperature;humidity
14901;DHT22;7542;49.078;9.194;2023-06-05T00:00:27;28.00;36.10
14901;DHT22;7542;49.078;9.194;2023-06-05T00:01:29;28.00;36.10
14901;DHT22;7542;49.078;9.194;2023-06-05T00:02:35;27.90;35.60
14901;DHT22;7542;49.078;9.194;2023-06-05T00:03:37;28.00;36.10
14901;DHT22;7542;49.078;9.194;2023-06-05T00:04:41;27.90;35.70
14901;DHT22;7542;49.078;9.194;2023-06-05T00:05:45;27.70;35.80
14901;DHT22;7542;49.078;9.194;2023-06-05T00:06:47;27.90;35.80
14901;DHT22;7542;49.078;9.194;2023-06-05T00:07:49;27.90;35.80
14901;DHT22;7542;49.078;9.194;2023-06-05T00:08:50;27.90;35.80
14901;DHT22;7542;49.078;9.194;2023-06-05T00:09:52;27.90;35.80
14901;DHT22;7542;49.078;9.194;2023-06-05T00:10:54;27.90;35.90
14901;DHT22;7542;49.078;9.194;2023-06-05T00:11:56;27.90;36.00
14901;DHT22;7542;49.078;9.194;2023-06-05T00:12:58;27.80;36.00
14901;DHT22;7542;49.078;9.194;2023-06-05T00:14:00;27.80;36.00
14901;DHT22;7542;49.078;9.194;2023-06-05T00:15:03;28.00;36.60
14901;DHT22;7542;49.078;9.194;2023-06-05T00:16:06;27.80;36.20
14901;DHT22;7542;49.078;9.194;2023-06-05T00:17:09;27.80;36.30
14901;DHT22;7542;49.078;9.194;2023-06-05T00:18:11;27.80;36.30
14901;DHT22;7542;49.078;9.194;2023-06-05T00:19:13;27.70;36.30
14901;DHT22;7542;49.078;9.194;2023-06-05T00:20:15;27.80;36.40
14901;DHT22;7542;49.078;9.194;2023-06-05T00:21:17;27.80;36.50
14901;DHT22;7542;49.078;9.194;2023-06-05T00:22:20;27.80;36.60
14901;DHT22;7542;49.078;9.194;2023-06-05T00:23:22;27.70;36.60
14901;DHT22;7542;49.078;9.194;2023-06-05T00:24:24;27.80;36.60
14901;DHT22;7542;49.078;9.194;2023-06-05T00:25:26;27.70;36.70
14901;DHT22;7542;49.078;9.194;2023-06-05T00:26:28;27.70;36.70
14901;DHT22;7542;49.078;9.194;2023-06-05T00:27:30;27.70;36.70
14901;DHT22;7542;49.078;9.194;2023-06-05T00:28:32;27.70;36.70
14901;DHT22;7542;49.078;9.194;2023-06-05T00:29:35;27.70;36.70
14901;DHT22;7542;49.078;9.194;2023-06-05T00:30:37;27.70;36.70
14901;DHT22;7542;49.078;9.194;2023-06-05T00:31:40;27.70;36.60
14901;DHT22;7542;49.078;9.194;2023-06-05T00:32:42;27.70;36.70
14901;DHT22;7542;49.078;9.194;2023-06-05T00:33:44;27.60;36.90
14901;DHT22;7542;49.078;9.194;2023-06-05T00:34:46;27.60;37.10
14901;DHT22;7542;49.078;9.194;2023-06-05T00:35:52;27.60;37.30
14901;DHT22;7542;49.078;9.194;2023-06-05T00:36:54;27.60;37.80
14901;DHT22;7542;49.078;9.194;2023-06-05T00:37:56;27.60;37.80
14901;DHT22;7542;49.078;9.194;2023-06-05T00:38:58;27.60;38.00
14901;DHT22;7542;49.078;9.194;2023-06-05T00:40:00;27.60;38.00
14901;DHT22;7542;49.078;9.194;2023-06-05T00:41:02;27.60;37.90
14901;DHT22;7542;49.078;9.194;2023-06-05T00:42:04;27.60;38.00
14901;DHT22;7542;49.078;9.194;2023-06-05T00:43:06;27.60;38.30
14901;DHT22;7542;49.078;9.194;2023-06-05T00:44:08;27.60;38.50
14901;DHT22;7542;49.078;9.194;2023-06-05T00:45:10;27.60;38.50
14901;DHT22;7542;49.078;9.194;2023-06-05T00:46:12;27.50;38.40
14901;DHT22;7542;49.078;9.194;2023-06-05T00:47:16;27.50;38.30
14901;DHT22;7542;49.078;9.194;2023-06-05T00:48:18;27.60;38.20
14901;DHT22;7542;49.078;9.194;2023-06-05T00:49:20;27.50;38.20
14901;DHT22;7542;49.078;9.194;2023-06-05T00:50:23;27.50;38.20
14901;DHT22;7542;49.078;9.194;2023-06-05T00:51:26;27.50;38.10
14901;DHT22;7542;49.078;9.194;2023-06-05T00:52:28;27.50;38.10
14901;DHT22;7542;49.078;9.194;2023-06-05T00:53:33;27.50;38.00
14901;DHT22;7542;49.078;9.194;2023-06-05T00:54:37;27.40;38.00
14901;DHT22;7542;49.078;9.194;2023-06-05T00:55:39;27.40;38.00
14901;DHT22;7542;49.078;9.194;2023-06-05T00:56:42;27.40;37.90
14901;DHT22;7542;49.078;9.194;2023-06-05T00:57:44;27.30;37.90
14901;DHT22;7542;49.078;9.194;2023-06-05T00:58:47;27.40;37.90
14901;DHT22;7542;49.078;9.194;2023-06-05T00:59:50;27.40;37.90
14901;DHT22;7542;49.078;9.194;2023-06-05T01:00:55;27.40;37.90
14901;DHT22;7542;49.078;9.194;2023-06-05T01:01:59;27.30;37.80
14901;DHT22;7542;49.078;9.194;2023-06-05T01:03:03;27.40;37.90
14901;DHT22;7542;49.078;9.194;2023-06-05T01:04:05;27.30;37.80
14901;DHT22;7542;49.078;9.194;2023-06-05T01:05:08;27.30;37.90
14901;DHT22;7542;49.078;9.194;2023-06-05T01:06:10;27.30;37.80
14901;DHT22;7542;49.078;9.194;2023-06-05T01:07:14;27.30;37.80
14901;DHT22;7542;49.078;9.194;2023-06-05T01:08:17;27.40;37.80
14901;DHT22;7542;49.078;9.194;2023-06-05T01:09:27;27.30;37.80
14901;DHT22;7542;49.078;9.194;2023-06-05T01:10:30;27.30;37.80
14901;DHT22;7542;49.078;9.194;2023-06-05T01:13:24;27.30;37.90
14901;DHT22;7542;49.078;9.194;2023-06-05T01:14:33;27.20;37.80
14901;DHT22;7542;49.078;9.194;2023-06-05T01:15:38;27.20;37.80
14901;DHT22;7542;49.078;9.194;2023-06-05T01:16:40;27.20;37.80
14901;DHT22;7542;49.078;9.194;2023-06-05T01:17:45;27.20;37.90
14901;DHT22;7542;49.078;9.194;2023-06-05T01:18:49;27.20;37.80
14901;DHT22;7542;49.078;9.194;2023-06-05T01:19:52;27.10;37.80
14901;DHT22;7542;49.078;9.194;2023-06-05T01:20:54;27.20;37.90
14901;DHT22;7542;49.078;9.194;2023-06-05T01:21:58;27.20;37.90
14901;DHT22;7542;49.078;9.194;2023-06-05T01:23:02;27.10;37.90
14901;DHT22;7542;49.078;9.194;2023-06-05T01:24:05;27.20;37.90
14901;DHT22;7542;49.078;9.194;2023-06-05T01:25:08;27.20;37.90
14901;DHT22;7542;49.078;9.194;2023-06-05T01:26:17;27.20;37.90
14901;DHT22;7542;49.078;9.194;2023-06-05T01:27:45;27.10;37.90
14901;DHT22;7542;49.078;9.194;2023-06-05T01:28:56;27.10;37.90
14901;DHT22;7542;49.078;9.194;2023-06-05T01:31:30;27.10;37.90
14901;DHT22;7542;49.078;9.194;2023-06-05T01:34:05;27.10;37.90
14901;DHT22;7542;49.078;9.194;2023-06-05T01:35:14;27.00;37.90
14901;DHT22;7542;49.078;9.194;2023-06-05T01:36:19;27.00;38.00
14901;DHT22;7542;49.078;9.194;2023-06-05T01:37:23;27.10;38.00
14901;DHT22;7542;49.078;9.194;2023-06-05T01:38:27;27.00;37.90
14901;DHT22;7542;49.078;9.194;2023-06-05T01:39:30;27.00;38.00
14901;DHT22;7542;49.078;9.194;2023-06-05T01:40:33;27.00;38.00
14901;DHT22;7542;49.078;9.194;2023-06-05T01:41:37;27.00;38.00
14901;DHT22;7542;49.078;9.194;2023-06-05T01:42:42;26.90;37.50
14901;DHT22;7542;49.078;9.194;2023-06-05T01:43:46;27.00;38.00
14901;DHT22;7542;49.078;9.194;2023-06-05T01:44:50;26.90;37.50
14901;DHT22;7542;49.078;9.194;2023-06-05T01:45:53;26.90;37.50
14901;DHT22;7542;49.078;9.194;2023-06-05T01:46:58;27.00;38.00
14901;DHT22;7542;49.078;9.194;2023-06-05T01:48:01;27.00;38.00
14901;DHT22;7542;49.078;9.194;2023-06-05T01:49:04;26.80;37.50
14901;DHT22;7542;49.078;9.194;2023-06-05T01:50:08;27.00;38.10
14901;DHT22;7542;49.078;9.194;2023-06-05T01:51:10;26.90;37.60
14901;DHT22;7542;49.078;9.194;2023-06-05T01:52:12;26.90;37.50
14901;DHT22;7542;49.078;9.194;2023-06-05T01:53:14;26.90;37.60
14901;DHT22;7542;49.078;9.194;2023-06-05T01:54:18;26.90;37.60
14901;DHT22;7542;49.078;9.194;2023-06-05T01:55:24;26.90;37.60
14901;DHT22;7542;49.078;9.194;2023-06-05T01:56:26;26.90;37.60
14901;DHT22;7542;49.078;9.194;2023-06-05T01:57:29;26.90;37.60
14901;DHT22;7542;49.078;9.194;2023-06-05T01:58:31;26.90;37.60
14901;DHT22;7542;49.078;9.194;2023-06-05T01:59:33;26.90;37.60
14901;DHT22;7542;49.078;9.194;2023-06-05T02:00:35;26.90;37.60
14901;DHT22;7542;49.078;9.194;2023-06-05T02:01:37;26.90;37.60
14901;DHT22;7542;49.078;9.194;2023-06-05T02:02:40;26.90;37.60
14901;DHT22;7542;49.078;9.194;2023-06-05T02:03:45;26.80;37.70
14901;DHT22;7542;49.078;9.194;2023-06-05T02:04:50;26.90;37.70
14901;DHT22;7542;49.078;9.194;2023-06-05T02:05:55;26.80;37.70
14901;DHT22;7542;49.078;9.194;2023-06-05T02:06:57;26.80;37.70
14901;DHT22;7542;49.078;9.194;2023-06-05T02:08:05;26.80;37.70
14901;DHT22;7542;49.078;9.194;2023-06-05T02:09:09;26.80;37.70
14901;DHT22;7542;49.078;9.194;2023-06-05T02:10:15;26.80;37.70
14901;DHT22;7542;49.078;9.194;2023-06-05T02:11:21;26.80;37.70
14901;DHT22;7542;49.078;9.194;2023-06-05T02:12:22;26.80;37.70
14901;DHT22;7542;49.078;9.194;2023-06-05T02:13:28;26.80;37.70
14901;DHT22;7542;49.078;9.194;2023-06-05T02:14:30;26.80;37.70
14901;DHT22;7542;49.078;9.194;2023-06-05T02:15:33;26.70;37.70
14901;DHT22;7542;49.078;9.194;2023-06-05T02:16:36;26.80;37.70
14901;DHT22;7542;49.078;9.194;2023-06-05T02:17:40;26.70;37.80
14901;DHT22;7542;49.078;9.194;2023-06-05T02:18:46;26.70;37.80
14901;DHT22;7542;49.078;9.194;2023-06-05T02:19:51;26.70;37.80
14901;DHT22;7542;49.078;9.194;2023-06-05T02:20:54;26.70;37.90
14901;DHT22;7542;49.078;9.194;2023-06-05T02:21:58;26.70;37.90
14901;DHT22;7542;49.078;9.194;2023-06-05T02:23:00;26.70;37.90
14901;DHT22;7542;49.078;9.194;2023-06-05T02:24:03;26.70;37.90
14901;DHT22;7542;49.078;9.194;2023-06-05T02:25:05;26.70;37.90
14901;DHT22;7542;49.078;9.194;2023-06-05T02:26:07;26.70;37.90
14901;DHT22;7542;49.078;9.194;2023-06-05T02:27:09;26.70;37.90
14901;DHT22;7542;49.078;9.194;2023-06-05T02:28:11;26.70;38.00
14901;DHT22;7542;49.078;9.194;2023-06-05T02:29:14;26.70;38.00
14901;DHT22;7542;49.078;9.194;2023-06-05T02:30:16;26.60;38.00
14901;DHT22;7542;49.078;9.194;2023-06-05T02:31:18;26.60;38.00
14901;DHT22;7542;49.078;9.194;2023-06-05T02:32:20;26.60;38.10
14901;DHT22;7542;49.078;9.194;2023-06-05T02:33:22;26.60;38.00
14901;DHT22;7542;49.078;9.194;2023-06-05T02:34:25;26.60;38.10
14901;DHT22;7542;49.078;9.194;2023-06-05T02:35:26;26.60;38.10
14901;DHT22;7542;49.078;9.194;2023-06-05T02:36:28;26.60;38.10
14901;DHT22;7542;49.078;9.194;2023-06-05T02:37:34;26.50;38.10
14901;DHT22;7542;49.078;9.194;2023-06-05T02:38:39;26.60;38.10
14901;DHT22;7542;49.078;9.194;2023-06-05T02:39:40;26.60;38.20
14901;DHT22;7542;49.078;9.194;2023-06-05T02:40:42;26.60;38.20
14901;DHT22;7542;49.078;9.194;2023-06-05T02:41:44;26.60;38.20
14901;DHT22;7542;49.078;9.194;2023-06-05T02:42:46;26.60;38.20
14901;DHT22;7542;49.078;9.194;2023-06-05T02:43:48;26.60;38.20
14901;DHT22;7542;49.078;9.194;2023-06-05T02:44:50;26.60;38.20
14901;DHT22;7542;49.078;9.194;2023-06-05T02:45:52;26.60;38.20
14901;DHT22;7542;49.078;9.194;2023-06-05T02:46:54;26.50;38.20
14901;DHT22;7542;49.078;9.194;2023-06-05T02:47:56;26.60;38.20
14901;DHT22;7542;49.078;9.194;2023-06-05T02:48:58;26.50;38.20
14901;DHT22;7542;49.078;9.194;2023-06-05T02:50:01;26.60;38.20
14901;DHT22;7542;49.078;9.194;2023-06-05T02:51:03;26.50;38.20
14901;DHT22;7542;49.078;9.194;2023-06-05T02:52:08;26.40;38.30
14901;DHT22;7542;49.078;9.194;2023-06-05T02:53:10;26.50;38.30
14901;DHT22;7542;49.078;9.194;2023-06-05T02:54:12;26.50;38.30
14901;DHT22;7542;49.078;9.194;2023-06-05T02:55:14;26.50;38.30
14901;DHT22;7542;49.078;9.194;2023-06-05T02:56:16;26.50;38.30
14901;DHT22;7542;49.078;9.194;2023-06-05T02:57:18;30.40;40.40
14901;DHT22;7542;49.078;9.194;2023-06-05T02:58:19;26.50;38.30
14901;DHT22;7542;49.078;9.194;2023-06-05T02:59:23;26.50;38.40
14901;DHT22;7542;49.078;9.194;2023-06-05T03:00:26;26.50;38.40
14901;DHT22;7542;49.078;9.194;2023-06-05T03:01:28;26.40;38.40
14901;DHT22;7542;49.078;9.194;2023-06-05T03:02:36;26.40;38.40
14901;DHT22;7542;49.078;9.194;2023-06-05T03:03:38;26.40;38.40
14901;DHT22;7542;49.078;9.194;2023-06-05T03:04:40;26.40;38.40
14901;DHT22;7542;49.078;9.194;2023-06-05T03:05:42;26.40;38.40
14901;DHT22;7542;49.078;9.194;2023-06-05T03:06:45;26.40;38.40
14901;DHT22;7542;49.078;9.194;2023-06-05T03:07:48;26.40;38.40
14901;DHT22;7542;49.078;9.194;2023-06-05T03:08:50;26.40;38.50
14901;DHT22;7542;49.078;9.194;2023-06-05T03:09:53;26.50;38.50
14901;DHT22;7542;49.078;9.194;2023-06-05T03:10:55;26.40;38.50
14901;DHT22;7542;49.078;9.194;2023-06-05T03:11:58;26.40;38.40
14901;DHT22;7542;49.078;9.194;2023-06-05T03:13:00;26.40;38.50
14901;DHT22;7542;49.078;9.194;2023-06-05T03:14:02;26.40;38.50
14901;DHT22;7542;49.078;9.194;2023-06-05T03:15:04;26.40;38.50
14901;DHT22;7542;49.078;9.194;2023-06-05T03:16:07;26.40;38.50
14901;DHT22;7542;49.078;9.194;2023-06-05T03:17:09;26.40;38.50
14901;DHT22;7542;49.078;9.194;2023-06-05T03:18:11;26.40;38.50
14901;DHT22;7542;49.078;9.194;2023-06-05T03:19:13;26.40;38.60
14901;DHT22;7542;49.078;9.194;2023-06-05T03:20:17;26.40;38.60
14901;DHT22;7542;49.078;9.194;2023-06-05T03:21:20;26.40;38.60
14901;DHT22;7542;49.078;9.194;2023-06-05T03:22:22;26.40;38.60
14901;DHT22;7542;49.078;9.194;2023-06-05T03:23:27;26.40;38.60
14901;DHT22;7542;49.078;9.194;2023-06-05T03:24:29;26.30;38.60
14901;DHT22;7542;49.078;9.194;2023-06-05T03:25:31;26.40;38.60
14901;DHT22;7542;49.078;9.194;2023-06-05T03:26:33;26.30;38.60
14901;DHT22;7542;49.078;9.194;2023-06-05T03:27:35;26.40;38.60
14901;DHT22;7542;49.078;9.194;2023-06-05T03:28:38;26.30;38.60
14901;DHT22;7542;49.078;9.194;2023-06-05T03:29:39;26.30;38.70
14901;DHT22;7542;49.078;9.194;2023-06-05T03:30:41;26.30;38.70
14901;DHT22;7542;49.078;9.194;2023-06-05T03:31:43;26.30;38.70
14901;DHT22;7542;49.078;9.194;2023-06-05T03:32:46;26.30;38.70
14901;DHT22;7542;49.078;9.194;2023-06-05T03:33:49;26.30;38.70
14901;DHT22;7542;49.078;9.194;2023-06-05T03:34:51;26.30;38.70
14901;DHT22;7542;49.078;9.194;2023-06-05T03:35:53;26.30;38.70
14901;DHT22;7542;49.078;9.194;2023-06-05T03:36:57;26.20;38.70
14901;DHT22;7542;49.078;9.194;2023-06-05T03:38:01;26.20;38.80
14901;DHT22;7542;49.078;9.194;2023-06-05T03:39:03;26.20;38.80
14901;DHT22;7542;49.078;9.194;2023-06-05T03:40:06;26.20;38.80
14901;DHT22;7542;49.078;9.194;2023-06-05T03:41:11;26.20;38.80
14901;DHT22;7542;49.078;9.194;2023-06-05T03:42:13;26.30;38.80
14901;DHT22;7542;49.078;9.194;2023-06-05T03:43:15;26.20;38.80
14901;DHT22;7542;49.078;9.194;2023-06-05T03:44:17;26.20;38.80
14901;DHT22;7542;49.078;9.194;2023-06-05T03:45:19;26.30;38.90
14901;DHT22;7542;49.078;9.194;2023-06-05T03:46:20;26.20;38.90
14901;DHT22;7542;49.078;9.194;2023-06-05T03:47:23;26.20;38.90
14901;DHT22;7542;49.078;9.194;2023-06-05T03:48:25;26.20;38.90
14901;DHT22;7542;49.078;9.194;2023-06-05T03:49:28;26.20;38.80
14901;DHT22;7542;49.078;9.194;2023-06-05T03:50:30;26.20;38.90
14901;DHT22;7542;49.078;9.194;2023-06-05T03:51:33;26.10;38.90
14901;DHT22;7542;49.078;9.194;2023-06-05T03:52:35;26.20;38.90
14901;DHT22;7542;49.078;9.194;2023-06-05T03:53:39;26.20;38.90
14901;DHT22;7542;49.078;9.194;2023-06-05T03:54:41;26.10;38.90
14901;DHT22;7542;49.078;9.194;2023-06-05T03:55:46;26.20;39.00
14901;DHT22;7542;49.078;9.194;2023-06-05T03:56:47;26.10;38.90
14901;DHT22;7542;49.078;9.194;2023-06-05T03:57:51;26.20;39.00
14901;DHT22;7542;49.078;9.194;2023-06-05T03:58:54;26.20;39.00
14901;DHT22;7542;49.078;9.194;2023-06-05T03:59:56;26.20;39.00
14901;DHT22;7542;49.078;9.194;2023-06-05T04:00:58;26.20;39.00
14901;DHT22;7542;49.078;9.194;2023-06-05T04:02:00;26.10;39.00
14901;DHT22;7542;49.078;9.194;2023-06-05T04:03:03;26.20;39.00
14901;DHT22;7542;49.078;9.194;2023-06-05T04:04:06;26.20;39.00
14901;DHT22;7542;49.078;9.194;2023-06-05T04:05:08;26.20;39.00
14901;DHT22;7542;49.078;9.194;2023-06-05T04:06:13;26.20;39.00
14901;DHT22;7542;49.078;9.194;2023-06-05T04:07:15;26.10;39.00
14901;DHT22;7542;49.078;9.194;2023-06-05T04:08:17;26.10;39.10
14901;DHT22;7542;49.078;9.194;2023-06-05T04:09:19;26.10;39.10
14901;DHT22;7542;49.078;9.194;2023-06-05T04:10:20;26.10;39.10
14901;DHT22;7542;49.078;9.194;2023-06-05T04:11:22;26.00;39.10
14901;DHT22;7542;49.078;9.194;2023-06-05T04:12:28;26.10;39.10
14901;DHT22;7542;49.078;9.194;2023-06-05T04:13:30;26.10;39.20
14901;DHT22;7542;49.078;9.194;2023-06-05T04:14:32;26.10;39.20
14901;DHT22;7542;49.078;9.194;2023-06-05T04:15:34;26.10;39.20
14901;DHT22;7542;49.078;9.194;2023-06-05T04:16:37;26.10;39.20
14901;DHT22;7542;49.078;9.194;2023-06-05T04:17:40;26.10;39.20
14901;DHT22;7542;49.078;9.194;2023-06-05T04:18:42;26.10;39.20
14901;DHT22;7542;49.078;9.194;2023-06-05T04:19:44;26.10;39.20
14901;DHT22;7542;49.078;9.194;2023-06-05T04:20:46;26.20;39.20
14901;DHT22;7542;49.078;9.194;2023-06-05T04:21:48;26.10;39.20
14901;DHT22;7542;49.078;9.194;2023-06-05T04:22:50;26.10;39.20
14901;DHT22;7542;49.078;9.194;2023-06-05T04:23:52;26.10;39.30
14901;DHT22;7542;49.078;9.194;2023-06-05T04:24:54;26.10;39.30
14901;DHT22;7542;49.078;9.194;2023-06-05T04:25:56;26.00;39.20
14901;DHT22;7542;49.078;9.194;2023-06-05T04:26:58;26.10;39.30
14901;DHT22;7542;49.078;9.194;2023-06-05T04:28:03;26.10;39.30
14901;DHT22;7542;49.078;9.194;2023-06-05T04:29:06;26.00;39.30
14901;DHT22;7542;49.078;9.194;2023-06-05T04:30:14;26.00;39.30
14901;DHT22;7542;49.078;9.194;2023-06-05T04:31:16;26.10;39.30
14901;DHT22;7542;49.078;9.194;2023-06-05T04:32:18;26.10;39.30
14901;DHT22;7542;49.078;9.194;2023-06-05T04:33:20;26.10;39.30
14901;DHT22;7542;49.078;9.194;2023-06-05T04:34:22;26.00;39.30
14901;DHT22;7542;49.078;9.194;2023-06-05T04:35:25;26.10;39.30
14901;DHT22;7542;49.078;9.194;2023-06-05T04:36:28;26.00;39.30
14901;DHT22;7542;49.078;9.194;2023-06-05T04:37:30;26.00;39.30
14901;DHT22;7542;49.078;9.194;2023-06-05T04:38:32;26.00;39.30
14901;DHT22;7542;49.078;9.194;2023-06-05T04:39:35;26.00;39.30
14901;DHT22;7542;49.078;9.194;2023-06-05T04:40:38;26.10;39.30
14901;DHT22;7542;49.078;9.194;2023-06-05T04:41:41;26.00;39.40
14901;DHT22;7542;49.078;9.194;2023-06-05T04:42:51;26.00;39.40
14901;DHT22;7542;49.078;9.194;2023-06-05T04:43:54;25.90;38.90
14901;DHT22;7542;49.078;9.194;2023-06-05T04:45:01;26.00;39.40
14901;DHT22;7542;49.078;9.194;2023-06-05T04:46:06;26.10;39.40
14901;DHT22;7542;49.078;9.194;2023-06-05T04:47:08;26.00;39.40
14901;DHT22;7542;49.078;9.194;2023-06-05T04:48:10;26.00;39.40
14901;DHT22;7542;49.078;9.194;2023-06-05T04:49:13;26.10;39.40
14901;DHT22;7542;49.078;9.194;2023-06-05T04:50:26;26.00;39.40
14901;DHT22;7542;49.078;9.194;2023-06-05T04:51:29;26.00;39.40
14901;DHT22;7542;49.078;9.194;2023-06-05T04:52:32;26.00;39.40
14901;DHT22;7542;49.078;9.194;2023-06-05T04:53:36;26.00;39.40
14901;DHT22;7542;49.078;9.194;2023-06-05T04:54:38;26.00;39.40
14901;DHT22;7542;49.078;9.194;2023-06-05T04:55:40;26.00;39.50
14901;DHT22;7542;49.078;9.194;2023-06-05T04:56:43;26.00;39.50
14901;DHT22;7542;49.078;9.194;2023-06-05T04:57:47;26.00;39.50
14901;DHT22;7542;49.078;9.194;2023-06-05T04:58:50;26.00;39.50
14901;DHT22;7542;49.078;9.194;2023-06-05T04:59:54;26.00;39.60
14901;DHT22;7542;49.078;9.194;2023-06-05T05:00:56;26.10;39.60
14901;DHT22;7542;49.078;9.194;2023-06-05T05:02:07;26.00;39.50
14901;DHT22;7542;49.078;9.194;2023-06-05T05:03:09;26.00;39.60
14901;DHT22;7542;49.078;9.194;2023-06-05T05:04:15;26.00;39.60
14901;DHT22;7542;49.078;9.194;2023-06-05T05:05:17;26.00;39.60
14901;DHT22;7542;49.078;9.194;2023-06-05T05:06:19;26.00;39.60
14901;DHT22;7542;49.078;9.194;2023-06-05T05:07:22;26.00;39.70
14901;DHT22;7542;49.078;9.194;2023-06-05T05:08:25;26.10;39.70
14901;DHT22;7542;49.078;9.194;2023-06-05T05:09:32;26.00;39.80
14901;DHT22;7542;49.078;9.194;2023-06-05T05:10:34;26.10;39.90
14901;DHT22;7542;49.078;9.194;2023-06-05T05:11:36;26.10;39.90
14901;DHT22;7542;49.078;9.194;2023-06-05T05:12:38;26.10;39.90
14901;DHT22;7542;49.078;9.194;2023-06-05T05:13:40;26.10;39.90
14901;DHT22;7542;49.078;9.194;2023-06-05T05:14:43;26.10;40.00
14901;DHT22;7542;49.078;9.194;2023-06-05T05:15:46;26.10;40.00
14901;DHT22;7542;49.078;9.194;2023-06-05T05:16:49;26.10;40.00
14901;DHT22;7542;49.078;9.194;2023-06-05T05:17:51;26.20;40.10
14901;DHT22;7542;49.078;9.194;2023-06-05T05:18:53;26.10;40.00
14901;DHT22;7542;49.078;9.194;2023-06-05T05:19:55;26.10;40.00
14901;DHT22;7542;49.078;9.194;2023-06-05T05:20:57;25.90;39.70
14901;DHT22;7542;49.078;9.194;2023-06-05T05:21:59;26.20;40.00
14901;DHT22;7542;49.078;9.194;2023-06-05T05:23:01;26.20;40.00
14901;DHT22;7542;49.078;9.194;2023-06-05T05:24:04;26.20;40.00
14901;DHT22;7542;49.078;9.194;2023-06-05T05:25:08;26.20;40.00
14901;DHT22;7542;49.078;9.194;2023-06-05T05:26:10;26.20;40.00
14901;DHT22;7542;49.078;9.194;2023-06-05T05:27:12;26.20;40.10
14901;DHT22;7542;49.078;9.194;2023-06-05T05:28:14;26.10;40.20
14901;DHT22;7542;49.078;9.194;2023-06-05T05:29:16;26.10;40.30
14901;DHT22;7542;49.078;9.194;2023-06-05T05:30:18;26.10;40.20
14901;DHT22;7542;49.078;9.194;2023-06-05T05:31:20;26.10;40.40
14901;DHT22;7542;49.078;9.194;2023-06-05T05:32:22;26.10;40.40
14901;DHT22;7542;49.078;9.194;2023-06-05T05:33:24;26.10;40.40
14901;DHT22;7542;49.078;9.194;2023-06-05T05:34:26;26.00;40.40
14901;DHT22;7542;49.078;9.194;2023-06-05T05:35:28;26.20;40.50
14901;DHT22;7542;49.078;9.194;2023-06-05T05:36:30;26.20;40.50
14901;DHT22;7542;49.078;9.194;2023-06-05T05:37:35;26.20;40.50
14901;DHT22;7542;49.078;9.194;2023-06-05T05:38:36;26.20;40.40
14901;DHT22;7542;49.078;9.194;2023-06-05T05:39:38;26.20;40.20
14901;DHT22;7542;49.078;9.194;2023-06-05T05:40:41;26.20;40.30
14901;DHT22;7542;49.078;9.194;2023-06-05T05:41:42;26.20;40.30
14901;DHT22;7542;49.078;9.194;2023-06-05T05:42:44;26.20;40.30
14901;DHT22;7542;49.078;9.194;2023-06-05T05:43:46;26.20;40.20
14901;DHT22;7542;49.078;9.194;2023-06-05T05:44:48;26.20;40.20
14901;DHT22;7542;49.078;9.194;2023-06-05T05:45:50;26.20;40.10
14901;DHT22;7542;49.078;9.194;2023-06-05T05:46:52;26.20;40.10
14901;DHT22;7542;49.078;9.194;2023-06-05T05:47:54;26.20;40.20
14901;DHT22;7542;49.078;9.194;2023-06-05T05:48:56;26.10;40.30
14901;DHT22;7542;49.078;9.194;2023-06-05T05:49:58;26.10;40.20
14901;DHT22;7542;49.078;9.194;2023-06-05T05:51:00;26.10;40.20
14901;DHT22;7542;49.078;9.194;2023-06-05T05:52:02;26.00;40.20
14901;DHT22;7542;49.078;9.194;2023-06-05T05:53:05;26.00;40.40
14901;DHT22;7542;49.078;9.194;2023-06-05T05:54:07;26.00;40.40
14901;DHT22;7542;49.078;9.194;2023-06-05T05:55:09;26.00;40.40
14901;DHT22;7542;49.078;9.194;2023-06-05T05:56:13;26.00;40.60
14901;DHT22;7542;49.078;9.194;2023-06-05T05:57:15;26.00;40.30
14901;DHT22;7542;49.078;9.194;2023-06-05T05:58:17;25.90;39.90
14901;DHT22;7542;49.078;9.194;2023-06-05T05:59:20;26.00;40.50
14901;DHT22;7542;49.078;9.194;2023-06-05T06:00:22;25.90;40.20
14901;DHT22;7542;49.078;9.194;2023-06-05T06:01:25;25.90;40.20
14901;DHT22;7542;49.078;9.194;2023-06-05T06:02:27;25.90;40.30
14901;DHT22;7542;49.078;9.194;2023-06-05T06:03:29;25.90;40.40
14901;DHT22;7542;49.078;9.194;2023-06-05T06:04:32;25.90;40.50
14901;DHT22;7542;49.078;9.194;2023-06-05T06:05:34;25.90;40.50
14901;DHT22;7542;49.078;9.194;2023-06-05T06:06:37;25.90;40.40
14901;DHT22;7542;49.078;9.194;2023-06-05T06:07:41;25.90;40.30
14901;DHT22;7542;49.078;9.194;2023-06-05T06:08:44;25.80;40.30
14901;DHT22;7542;49.078;9.194;2023-06-05T06:09:46;25.30;40.10
14901;DHT22;7542;49.078;9.194;2023-06-05T06:10:48;25.80;40.00
14901;DHT22;7542;49.078;9.194;2023-06-05T06:11:50;25.80;40.10
14901;DHT22;7542;49.078;9.194;2023-06-05T06:12:53;25.90;40.20
14901;DHT22;7542;49.078;9.194;2023-06-05T06:13:55;25.90;40.20
14901;DHT22;7542;49.078;9.194;2023-06-05T06:14:57;25.90;40.20
14901;DHT22;7542;49.078;9.194;2023-06-05T06:16:00;25.90;40.10
14901;DHT22;7542;49.078;9.194;2023-06-05T06:17:04;25.90;40.20
14901;DHT22;7542;49.078;9.194;2023-06-05T06:18:07;25.90;40.50
14901;DHT22;7542;49.078;9.194;2023-06-05T06:19:10;25.90;40.40
14901;DHT22;7542;49.078;9.194;2023-06-05T06:20:16;25.90;40.50
14901;DHT22;7542;49.078;9.194;2023-06-05T06:21:18;25.90;40.50
14901;DHT22;7542;49.078;9.194;2023-06-05T06:22:20;25.90;40.50
14901;DHT22;7542;49.078;9.194;2023-06-05T06:23:22;25.90;40.50
14901;DHT22;7542;49.078;9.194;2023-06-05T06:24:24;25.90;40.50
14901;DHT22;7542;49.078;9.194;2023-06-05T06:25:26;26.00;40.90
14901;DHT22;7542;49.078;9.194;2023-06-05T06:26:30;26.00;40.80
14901;DHT22;7542;49.078;9.194;2023-06-05T06:27:32;26.00;40.90
14901;DHT22;7542;49.078;9.194;2023-06-05T06:28:37;26.00;40.80
14901;DHT22;7542;49.078;9.194;2023-06-05T06:29:49;26.00;40.60
14901;DHT22;7542;49.078;9.194;2023-06-05T06:30:55;26.10;40.50
14901;DHT22;7542;49.078;9.194;2023-06-05T06:31:58;26.10;40.50
14901;DHT22;7542;49.078;9.194;2023-06-05T06:33:00;26.10;40.50
14901;DHT22;7542;49.078;9.194;2023-06-05T06:34:02;28.30;41.40
14901;DHT22;7542;49.078;9.194;2023-06-05T06:35:04;26.20;40.50
14901;DHT22;7542;49.078;9.194;2023-06-05T06:36:07;26.20;40.40
14901;DHT22;7542;49.078;9.194;2023-06-05T06:37:10;26.20;40.40
14901;DHT22;7542;49.078;9.194;2023-06-05T06:38:18;26.30;40.40
14901;DHT22;7542;49.078;9.194;2023-06-05T06:39:20;26.30;40.30
14901;DHT22;7542;49.078;9.194;2023-06-05T06:40:24;26.40;40.30
14901;DHT22;7542;49.078;9.194;2023-06-05T06:41:26;26.40;40.30
14901;DHT22;7542;49.078;9.194;2023-06-05T06:42:28;26.40;40.20
14901;DHT22;7542;49.078;9.194;2023-06-05T06:43:30;26.40;40.30
14901;DHT22;7542;49.078;9.194;2023-06-05T06:44:32;26.40;40.30
14901;DHT22;7542;49.078;9.194;2023-06-05T06:45:34;26.40;40.40
14901;DHT22;7542;49.078;9.194;2023-06-05T06:46:36;26.40;40.30
14901;DHT22;7542;49.078;9.194;2023-06-05T06:47:38;26.40;40.20
14901;DHT22;7542;49.078;9.194;2023-06-05T06:48:40;26.40;40.50